Time;durP1;ratioP1;P1;durP2;ratioP2;P2;SDS_P1;SDS_P2;PMS_P1;PMS_P2;Temp;Humidity;BMP_temperature;BMP_pressure;BME280_temperature;BME280_humidity;BME280_pressure;Samples;Min_cycle;Max_cycle;Signal;HPM_P1;HPM_P2
2021/04/17 00:00:35;;;;;;;;;;;;;;;21.50;30.42;102825.19;2187873;39;114772;-62
2021/04/17 00:02:07;;;;;;;;;;;;;;;21.48;30.50;102819.00;2188654;39;115975;-62
2021/04/17 00:03:38;;;;;;;;;;;;;;;21.49;30.33;102820.69;2190949;39;114779;-61
2021/04/17 00:05:11;;;;;;;;;;;;;;;21.49;30.27;102822.63;2189818;39;115361;-62
2021/04/17 00:06:42;;;;;;;;;;;;;;;21.46;30.70;102820.38;2190368;39;114122;-59
2021/04/17 00:08:13;;;;;;;;;;;;;;;21.45;30.79;102825.16;2190058;39;115261;-60
2021/04/17 00:09:44;;;;;;;;;;;;;;;21.44;30.67;102825.44;2189484;39;114849;-61
2021/04/17 00:11:16;;;;;;;;;;;;;;;21.43;31.14;102824.59;2199469;39;115321;-57
2021/04/17 00:12:47;;;;;;;;;;;;;;;21.42;30.97;102819.22;2198228;39;115018;-60
2021/04/17 00:14:20;;;;;;;;;;;;;;;21.41;31.05;102828.75;2193996;39;115082;-61
2021/04/17 00:16:08;;;;;;;;;;;;;;;21.39;31.20;102826.25;2186837;39;114301;-57
2021/04/17 00:17:39;;;;;;;;;;;;;;;21.39;31.11;102825.41;2193528;39;115225;-60
2021/04/17 00:19:11;;;;;;;;;;;;;;;21.38;31.10;102820.88;2189628;39;115452;-63
2021/04/17 00:20:42;;;;;;;;;;;;;;;21.35;31.04;102819.44;2197573;39;115608;-60
2021/04/17 00:22:13;;;;;;;;;;;;;;;21.35;31.22;102822.25;2193103;39;114952;-59
2021/04/17 00:23:44;;;;;;;;;;;;;;;21.33;31.00;102818.88;2191555;39;116377;-61
2021/04/17 00:25:15;;;;;;;;;;;;;;;21.32;31.09;102817.16;2193886;39;115639;-61
2021/04/17 00:26:46;;;;;;;;;;;;;;;21.32;31.12;102814.34;2193304;39;114497;-61
2021/04/17 00:28:18;;;;;;;;;;;;;;;21.30;31.23;102820.25;2191501;39;115435;-61
2021/04/17 00:29:49;;;;;;;;;;;;;;;21.30;31.34;102823.06;2190759;39;115822;-60
2021/04/17 00:31:21;;;;;;;;;;;;;;;21.29;31.44;102817.72;2188220;39;115870;-60
2021/04/17 00:32:52;;;;;;;;;;;;;;;21.28;31.67;102825.31;2188548;39;115522;-59
2021/04/17 00:34:24;;;;;;;;;;;;;;;21.27;31.49;102817.97;2188502;39;115488;-61
2021/04/17 00:35:55;;;;;;;;;;;;;;;21.26;31.57;102826.66;2189444;39;115509;-57
2021/04/17 00:37:26;;;;;;;;;;;;;;;21.26;31.81;102819.09;2190800;39;116372;-58
2021/04/17 00:38:57;;;;;;;;;;;;;;;21.25;31.75;102813.75;2197498;39;116419;-60
2021/04/17 00:40:28;;;;;;;;;;;;;;;21.25;31.77;102819.38;2190981;39;115816;-60
2021/04/17 00:41:59;;;;;;;;;;;;;;;21.24;31.70;102814.84;2188932;39;113871;-59
2021/04/17 00:43:31;;;;;;;;;;;;;;;21.22;31.76;102814.25;2197306;39;113884;-60
2021/04/17 00:45:03;;;;;;;;;;;;;;;21.22;31.58;102811.44;2191812;39;113930;-59
2021/04/17 00:46:34;;;;;;;;;;;;;;;21.23;32.11;102810.34;2196941;39;114508;-58
2021/04/17 00:48:06;;;;;;;;;;;;;;;21.22;32.52;102808.63;2190910;39;114799;-60
2021/04/17 00:49:37;;;;;;;;;;;;;;;21.21;32.14;102806.97;2194425;39;113975;-60
2021/04/17 00:51:09;;;;;;;;;;;;;;;21.20;31.91;102803.31;2190111;39;113635;-61
2021/04/17 00:52:40;;;;;;;;;;;;;;;21.18;32.16;102805.53;2191602;39;114156;-60
2021/04/17 00:54:12;;;;;;;;;;;;;;;21.19;32.49;102803.56;2189305;39;114689;-61
2021/04/17 00:55:43;;;;;;;;;;;;;;;21.19;32.45;102798.78;2188498;39;114085;-60
2021/04/17 00:57:14;;;;;;;;;;;;;;;21.17;32.00;102806.63;2188464;39;114144;-61
2021/04/17 00:58:45;;;;;;;;;;;;;;;21.17;32.60;102800.16;2191919;39;114254;-59
2021/04/17 01:00:17;;;;;;;;;;;;;;;21.16;32.09;102804.97;2194554;39;113767;-61
2021/04/17 01:01:48;;;;;;;;;;;;;;;21.13;32.60;102805.47;2191486;39;114751;-61
2021/04/17 01:03:29;;;;;;;;;;;;;;;21.13;33.05;102808.28;2191375;39;114999;-58
2021/04/17 01:05:01;;;;;;;;;;;;;;;21.16;33.23;102804.09;2191090;39;115413;-61
2021/04/17 01:06:36;;;;;;;;;;;;;;;21.15;33.28;102802.41;2189184;39;114291;-59
2021/04/17 01:08:11;;;;;;;;;;;;;;;21.12;33.22;102795.31;2188623;39;115040;-60
2021/04/17 01:09:45;;;;;;;;;;;;;;;21.10;32.99;102794.75;2188545;39;114960;-58
2021/04/17 01:11:18;;;;;;;;;;;;;;;21.13;33.04;102793.38;2191987;39;114928;-61
2021/04/17 01:12:51;;;;;;;;;;;;;;;21.10;33.28;102788.28;2201926;39;115308;-59
2021/04/17 01:14:22;;;;;;;;;;;;;;;21.12;33.11;102792.50;2193929;39;117348;-61
2021/04/17 01:15:54;;;;;;;;;;;;;;;21.13;33.21;102787.75;2193821;39;114916;-60
2021/04/17 01:17:26;;;;;;;;;;;;;;;21.10;33.07;102785.47;2194760;39;114800;-60
2021/04/17 01:18:58;;;;;;;;;;;;;;;21.11;33.25;102787.16;2195769;39;114781;-60
2021/04/17 01:20:29;;;;;;;;;;;;;;;21.10;33.33;102783.50;2200578;39;114810;-58
2021/04/17 01:22:01;;;;;;;;;;;;;;;21.08;33.12;102785.72;2200466;39;114913;-59
2021/04/17 01:23:41;;;;;;;;;;;;;;;21.09;33.16;102780.94;2202670;39;115829;-60
2021/04/17 01:25:14;;;;;;;;;;;;;;;21.09;32.94;102789.38;2194429;39;115564;-59
2021/04/17 01:26:46;;;;;;;;;;;;;;;21.07;32.92;102783.19;2198529;39;115684;-61
2021/04/17 01:28:17;;;;;;;;;;;;;;;21.06;33.45;102787.97;2197302;39;115482;-59
2021/04/17 01:29:49;;;;;;;;;;;;;;;21.05;33.21;102783.44;2191372;39;115128;-61
2021/04/17 01:31:21;;;;;;;;;;;;;;;21.03;33.19;102785.66;2188598;39;115370;-61
2021/04/17 01:32:53;;;;;;;;;;;;;;;21.04;33.08;102786.53;2188449;39;115672;-61
2021/04/17 01:34:24;;;;;;;;;;;;;;;21.04;33.21;102787.38;2196690;39;115041;-57
2021/04/17 01:35:57;;;;;;;;;;;;;;;21.02;33.47;102786.81;2193989;39;115877;-60
2021/04/17 01:37:48;;;;;;;;;;;;;;;21.01;33.49;102778.63;2191782;39;115479;-58
2021/04/17 01:39:24;;;;;;;;;;;;;;;21.00;33.61;102785.34;2200870;39;115476;-57
2021/04/17 01:40:57;;;;;;;;;;;;;;;21.02;33.54;102780.34;2199081;39;115578;-59
2021/04/17 01:42:28;;;;;;;;;;;;;;;20.99;33.46;102776.09;2200691;39;118245;-59
2021/04/17 01:44:03;;;;;;;;;;;;;;;20.99;33.43;102775.22;2199760;39;116036;-58
2021/04/17 01:45:35;;;;;;;;;;;;;;;21.00;33.64;102776.94;2194476;39;116043;-60
2021/04/17 01:47:09;;;;;;;;;;;;;;;20.99;33.48;102781.69;2198186;39;113948;-60
2021/04/17 01:48:42;;;;;;;;;;;;;;;20.98;33.85;102780.03;2185715;39;114028;-60
2021/04/17 01:50:15;;;;;;;;;;;;;;;20.98;33.71;102776.38;2190821;39;113866;-59
2021/04/17 01:51:49;;;;;;;;;;;;;;;20.96;33.80;102781.41;2192831;39;113831;-59
2021/04/17 01:53:22;;;;;;;;;;;;;;;20.93;33.88;102779.97;2192212;39;113866;-58
2021/04/17 01:54:55;;;;;;;;;;;;;;;20.93;33.85;102771.56;2192912;39;113681;-59
2021/04/17 01:56:26;;;;;;;;;;;;;;;20.92;34.21;102786.72;2198278;39;113894;-57
2021/04/17 01:57:58;;;;;;;;;;;;;;;20.94;33.93;102778.84;2196706;39;113853;-59
2021/04/17 01:59:31;;;;;;;;;;;;;;;20.92;34.03;102774.63;2198525;39;113790;-60
2021/04/17 02:01:03;;;;;;;;;;;;;;;20.90;33.62;102783.31;2203690;39;114767;-60
2021/04/17 02:02:34;;;;;;;;;;;;;;;20.91;33.90;102779.38;2199837;39;114893;-58
2021/04/17 02:04:06;;;;;;;;;;;;;;;20.89;33.80;102786.41;2198101;39;113584;-58
2021/04/17 02:05:37;;;;;;;;;;;;;;;20.89;33.83;102780.78;2203942;39;114261;-57
2021/04/17 02:07:09;;;;;;;;;;;;;;;20.88;33.69;102779.94;2195400;39;113793;-59
2021/04/17 02:08:40;;;;;;;;;;;;;;;20.86;33.97;102782.13;2192763;39;116444;-60
2021/04/17 02:10:12;;;;;;;;;;;;;;;20.83;34.15;102788.31;2198291;39;113867;-60
2021/04/17 02:11:43;;;;;;;;;;;;;;;20.84;33.68;102785.25;2194818;39;114714;-60
2021/04/17 02:13:15;;;;;;;;;;;;;;;20.85;33.89;102786.06;2201791;39;115147;-58
2021/04/17 02:14:46;;;;;;;;;;;;;;;20.83;33.87;102779.88;2191907;39;114933;-59
2021/04/17 02:16:21;;;;;;;;;;;;;;;20.80;33.91;102774.78;2197094;39;113830;-61
2021/04/17 02:18:02;;;;;;;;;;;;;;;20.83;33.80;102785.50;2187923;39;113885;-60
2021/04/17 02:19:36;;;;;;;;;;;;;;;20.82;33.63;102773.41;2196442;39;114920;-60
2021/04/17 02:21:08;;;;;;;;;;;;;;;20.81;33.80;102771.69;2195585;39;114825;-60
2021/04/17 02:22:49;;;;;;;;;;;;;;;20.80;33.98;102764.38;2203824;39;114885;-58
2021/04/17 02:24:20;;;;;;;;;;;;;;;20.79;34.28;102768.31;2200021;39;114855;-62
2021/04/17 02:25:51;;;;;;;;;;;;;;;20.79;34.09;102761.84;2198008;39;114789;-61
2021/04/17 02:27:22;;;;;;;;;;;;;;;20.78;34.08;102769.44;2198314;39;114901;-60
2021/04/17 02:28:54;;;;;;;;;;;;;;;20.77;34.29;102773.34;2200801;39;114875;-59
2021/04/17 02:30:26;;;;;;;;;;;;;;;20.77;33.90;102772.50;2197676;39;115487;-60
2021/04/17 02:31:57;;;;;;;;;;;;;;;20.75;34.17;102771.94;2197594;39;116332;-58
2021/04/17 02:33:28;;;;;;;;;;;;;;;20.74;34.30;102773.88;2193599;39;115855;-59
2021/04/17 02:34:59;;;;;;;;;;;;;;;20.74;34.23;102773.88;2192708;39;115622;-59
2021/04/17 02:36:30;;;;;;;;;;;;;;;20.73;34.00;102779.75;2191429;39;115930;-59
2021/04/17 02:38:02;;;;;;;;;;;;;;;20.73;33.90;102772.19;2191032;39;115975;-60
2021/04/17 02:39:33;;;;;;;;;;;;;;;20.72;34.14;102778.91;2199183;39;114563;-59
2021/04/17 02:41:04;;;;;;;;;;;;;;;20.72;33.96;102769.63;2197584;39;115593;-61
2021/04/17 02:42:35;;;;;;;;;;;;;;;20.71;34.30;102774.44;2198073;39;115858;-60
2021/04/17 02:44:06;;;;;;;;;;;;;;;20.70;33.92;102775.53;2203467;39;116007;-59
2021/04/17 02:45:37;;;;;;;;;;;;;;;20.68;34.37;102772.13;2191368;39;116213;-63
2021/04/17 02:47:10;;;;;;;;;;;;;;;20.67;34.19;102767.63;2194126;39;115673;-61
2021/04/17 02:48:41;;;;;;;;;;;;;;;20.68;34.24;102774.94;2192961;39;116013;-59
2021/04/17 02:50:16;;;;;;;;;;;;;;;20.69;34.35;102775.78;2206254;39;115437;-58
2021/04/17 02:51:47;;;;;;;;;;;;;;;20.68;34.09;102774.94;2199375;39;114041;-62
2021/04/17 02:53:18;;;;;;;;;;;;;;;20.68;34.09;102774.94;2202900;39;114476;-62
2021/04/17 02:54:49;;;;;;;;;;;;;;;20.67;34.05;102772.41;2200310;39;113899;-62
2021/04/17 02:56:21;;;;;;;;;;;;;;;20.67;34.43;102773.25;2189863;39;114003;-60
2021/04/17 02:57:52;;;;;;;;;;;;;;;20.66;34.21;102768.75;2187595;39;113738;-59
2021/04/17 02:59:23;;;;;;;;;;;;;;;20.66;34.33;102773.53;2188299;39;114319;-60
2021/04/17 03:00:54;;;;;;;;;;;;;;;20.66;34.17;102773.53;2188345;39;113990;-59
2021/04/17 03:02:25;;;;;;;;;;;;;;;20.65;34.23;102769.88;2188042;39;113890;-60
2021/04/17 03:03:56;;;;;;;;;;;;;;;20.63;34.42;102769.25;2195604;39;113617;-60
2021/04/17 03:05:27;;;;;;;;;;;;;;;20.64;34.44;102772.94;2198136;39;115482;-59
2021/04/17 03:06:58;;;;;;;;;;;;;;;20.62;34.68;102767.59;2191588;39;113923;-61
2021/04/17 03:08:30;;;;;;;;;;;;;;;20.62;34.75;102772.38;2194426;39;113930;-61
2021/04/17 03:10:03;;;;;;;;;;;;;;;20.60;34.97;102763.34;2190864;39;115561;-58
2021/04/17 03:11:35;;;;;;;;;;;;;;;20.60;34.58;102767.00;2192898;39;113661;-60
2021/04/17 03:13:06;;;;;;;;;;;;;;;20.59;34.55;102759.69;2195070;39;114468;-62
2021/04/17 03:14:40;;;;;;;;;;;;;;;20.56;34.85;102768.63;2190961;39;114850;-62
2021/04/17 03:16:11;;;;;;;;;;;;;;;20.57;35.04;102769.50;2196294;39;114215;-59
2021/04/17 03:17:42;;;;;;;;;;;;;;;20.57;35.04;102763.88;2195469;39;114865;-60
2021/04/17 03:19:13;;;;;;;;;;;;;;;20.57;34.95;102769.50;2193784;39;114815;-59
2021/04/17 03:20:45;;;;;;;;;;;;;;;20.57;35.01;102775.97;2198934;39;114810;-60
2021/04/17 03:22:16;;;;;;;;;;;;;;;20.55;34.97;102772.56;2199500;39;114853;-60
2021/04/17 03:23:47;;;;;;;;;;;;;;;20.54;34.70;102782.09;2196820;39;113947;-60
2021/04/17 03:25:18;;;;;;;;;;;;;;;20.54;35.14;102770.84;2199204;39;115760;-57
2021/04/17 03:26:49;;;;;;;;;;;;;;;20.53;34.82;102769.19;2201668;39;114975;-62
2021/04/17 03:28:20;;;;;;;;;;;;;;;20.52;34.69;102778.72;2195091;39;114814;-60
2021/04/17 03:29:51;;;;;;;;;;;;;;;20.52;34.60;102778.72;2197974;39;115295;-59
2021/04/17 03:31:22;;;;;;;;;;;;;;;20.51;35.16;102785.44;2198077;39;116919;-59
2021/04/17 03:32:55;;;;;;;;;;;;;;;20.50;34.39;102774.44;2200992;39;114880;-58
2021/04/17 03:34:26;;;;;;;;;;;;;;;20.50;34.43;102772.50;2197829;39;115419;-61
2021/04/17 03:35:57;;;;;;;;;;;;;;;20.50;34.81;102772.50;2202285;39;115735;-58
2021/04/17 03:37:28;;;;;;;;;;;;;;;20.49;34.43;102776.41;2188686;39;115573;-60
2021/04/17 03:39:00;;;;;;;;;;;;;;;20.47;34.82;102773.03;2191388;39;115483;-60
2021/04/17 03:40:31;;;;;;;;;;;;;;;20.47;34.76;102781.47;2193223;39;115294;-63
2021/04/17 03:42:02;;;;;;;;;;;;;;;20.47;34.74;102778.66;2198721;39;115664;-58
2021/04/17 03:43:34;;;;;;;;;;;;;;;20.47;34.70;102775.00;2195485;39;115606;-62
2021/04/17 03:45:05;;;;;;;;;;;;;;;20.45;34.49;102772.44;2195713;39;115504;-59
2021/04/17 03:46:37;;;;;;;;;;;;;;;20.48;34.71;102777.53;2196260;39;115706;-59
2021/04/17 03:48:08;;;;;;;;;;;;;;;20.45;34.62;102783.66;2199260;39;116092;-59
2021/04/17 03:49:40;;;;;;;;;;;;;;;20.44;34.56;102778.34;2199524;39;115460;-60
2021/04/17 03:51:11;;;;;;;;;;;;;;;20.44;34.41;102776.38;2195432;39;115903;-59
2021/04/17 03:52:42;;;;;;;;;;;;;;;20.44;34.82;102776.38;2193580;39;115806;-59
2021/04/17 03:54:13;;;;;;;;;;;;;;;20.41;34.84;102774.94;2199386;39;115782;-63
2021/04/17 03:55:44;;;;;;;;;;;;;;;20.39;34.64;102771.56;2195413;39;115830;-61
2021/04/17 03:57:15;;;;;;;;;;;;;;;20.38;34.75;102775.47;2197643;39;113772;-58
2021/04/17 03:58:47;;;;;;;;;;;;;;;20.41;34.36;102779.69;2203676;39;113631;-60
2021/04/17 04:00:19;;;;;;;;;;;;;;;20.39;34.72;102776.31;2193334;39;113732;-60
2021/04/17 04:01:50;;;;;;;;;;;;;;;20.38;34.78;102783.03;2193453;39;113800;-57
2021/04/17 04:03:22;;;;;;;;;;;;;;;20.35;34.94;102780.75;2194481;39;113914;-61
2021/04/17 04:04:53;;;;;;;;;;;;;;;20.37;34.94;102789.75;2203459;39;114304;-58
2021/04/17 04:06:24;;;;;;;;;;;;;;;20.35;34.77;102783.56;2194964;39;113680;-63
2021/04/17 04:07:56;;;;;;;;;;;;;;;20.35;34.72;102778.78;2193036;39;113626;-58
2021/04/17 04:09:27;;;;;;;;;;;;;;;20.33;34.60;102783.81;2193760;39;113701;-58
2021/04/17 04:10:58;;;;;;;;;;;;;;;20.32;34.84;102775.66;2198463;39;113636;-62
2021/04/17 04:12:29;;;;;;;;;;;;;;;20.31;35.23;102780.41;2199920;39;114374;-61
2021/04/17 04:14:00;;;;;;;;;;;;;;;20.30;34.74;102778.75;2198573;39;114410;-58
2021/04/17 04:15:32;;;;;;;;;;;;;;;20.29;35.02;102784.56;2194981;39;113704;-59
2021/04/17 04:17:04;;;;;;;;;;;;;;;20.27;35.00;102779.22;2205724;39;116670;-61
2021/04/17 04:18:35;;;;;;;;;;;;;;;20.30;34.77;102784.34;2198910;39;114963;-62
2021/04/17 04:20:07;;;;;;;;;;;;;;;20.31;34.76;102796.41;2198818;39;113913;-60
2021/04/17 04:21:38;;;;;;;;;;;;;;;20.30;34.93;102789.13;2189244;39;114795;-61
2021/04/17 04:23:09;;;;;;;;;;;;;;;20.26;34.57;102790.72;2196334;39;115244;-60
2021/04/17 04:24:41;;;;;;;;;;;;;;;20.24;34.72;102790.13;2204587;39;115274;-60
2021/04/17 04:26:12;;;;;;;;;;;;;;;20.24;34.98;102790.97;2200091;39;114868;-62
2021/04/17 04:27:43;;;;;;;;;;;;;;;20.24;35.10;102782.56;2197976;39;114718;-62
2021/04/17 04:29:14;;;;;;;;;;;;;;;20.24;34.80;102795.75;2195680;39;118641;-61
2021/04/17 04:30:45;;;;;;;;;;;;;;;20.24;34.93;102796.59;2193426;39;115063;-63
2021/04/17 04:32:17;;;;;;;;;;;;;;;20.26;34.71;102793.53;2199039;39;115022;-64
2021/04/17 04:33:48;;;;;;;;;;;;;;;20.24;34.95;102795.75;2192861;39;113830;-61
2021/04/17 04:35:19;;;;;;;;;;;;;;;20.25;35.29;102803.06;2203890;39;114975;-61
2021/04/17 04:36:50;;;;;;;;;;;;;;;20.24;34.78;102798.53;2195814;39;115789;-61
2021/04/17 04:38:21;;;;;;;;;;;;;;;20.23;35.11;102796.84;2194256;39;115257;-61
2021/04/17 04:39:53;;;;;;;;;;;;;;;20.21;35.20;102805.53;2193437;39;115802;-59
2021/04/17 04:41:24;;;;;;;;;;;;;;;20.22;34.72;102809.16;2191351;39;115904;-59
2021/04/17 04:42:55;;;;;;;;;;;;;;;20.20;35.05;102809.47;2194225;39;115459;-57
2021/04/17 04:44:26;;;;;;;;;;;;;;;20.20;34.96;102805.78;2199065;39;115824;-61
2021/04/17 04:45:57;;;;;;;;;;;;;;;20.21;34.67;102799.06;2200496;39;115908;-62
2021/04/17 04:47:28;;;;;;;;;;;;;;;20.19;34.61;102804.94;2193257;39;115657;-62
2021/04/17 04:48:59;;;;;;;;;;;;;;;20.20;34.58;102805.78;2192368;39;115667;-58
2021/04/17 04:50:31;;;;;;;;;;;;;;;20.17;34.82;102807.16;2194018;39;115665;-60
2021/04/17 04:52:02;;;;;;;;;;;;;;;20.19;34.60;102806.91;2198101;39;116178;-60
2021/04/17 04:53:33;;;;;;;;;;;;;;;20.18;34.81;102808.00;2204173;39;115523;-60
2021/04/17 04:55:05;;;;;;;;;;;;;;;20.19;34.86;102804.09;2198602;39;115658;-60
2021/04/17 04:56:36;;;;;;;;;;;;;;;20.17;34.82;102803.53;2196507;39;115266;-60
2021/04/17 04:58:07;;;;;;;;;;;;;;;20.14;34.36;102804.88;2198971;39;114646;-58
2021/04/17 04:59:38;;;;;;;;;;;;;;;20.13;34.61;102803.16;2201257;39;115401;-60
2021/04/17 05:01:09;;;;;;;;;;;;;;;20.11;34.52;102797.00;2199793;39;116080;-60
2021/04/17 05:02:40;;;;;;;;;;;;;;;20.12;34.76;102798.69;2191762;39;114194;-59
2021/04/17 05:04:11;;;;;;;;;;;;;;;20.12;34.66;102804.31;2194546;39;113850;-64
2021/04/17 05:05:42;;;;;;;;;;;;;;;20.09;34.70;102792.72;2197208;39;113793;-61
2021/04/17 05:07:13;;;;;;;;;;;;;;;20.08;34.94;102805.09;2200382;39;115709;-59
2021/04/17 05:08:44;;;;;;;;;;;;;;;20.06;34.99;102796.06;2196699;39;114643;-61
2021/04/17 05:10:16;;;;;;;;;;;;;;;20.07;34.88;102792.16;2194995;39;113680;-59
2021/04/17 05:11:47;;;;;;;;;;;;;;;20.10;34.88;102800.03;2198190;39;114044;-60
2021/04/17 05:13:18;;;;;;;;;;;;;;;20.12;35.07;102803.44;2198224;39;114578;-60
2021/04/17 05:14:49;;;;;;;;;;;;;;;20.14;35.37;102804.03;2195693;39;113843;-60
2021/04/17 05:16:22;;;;;;;;;;;;;;;20.16;35.16;102801.81;2200168;39;114017;-60
2021/04/17 05:17:53;;;;;;;;;;;;;;;20.17;35.38;102795.91;2200233;39;113924;-59
2021/04/17 05:19:25;;;;;;;;;;;;;;;20.20;35.49;102800.19;2198788;39;114635;-61
2021/04/17 05:20:56;;;;;;;;;;;;;;;20.19;35.38;102795.66;2202695;39;113814;-59
2021/04/17 05:22:27;;;;;;;;;;;;;;;20.21;35.31;102797.13;2196595;39;114063;-58
2021/04/17 05:23:59;;;;;;;;;;;;;;;20.24;35.50;102795.75;2196393;39;114908;-61
2021/04/17 05:25:30;;;;;;;;;;;;;;;20.24;35.74;102798.53;2197113;39;114274;-62
2021/04/17 05:27:01;;;;;;;;;;;;;;;20.22;35.41;102792.34;2198819;39;114392;-59
2021/04/17 05:28:32;;;;;;;;;;;;;;;20.24;35.32;102799.41;2198060;39;115064;-60
2021/04/17 05:30:04;;;;;;;;;;;;;;;20.27;35.62;102795.22;2192900;39;114838;-59
2021/04/17 05:31:35;;;;;;;;;;;;;;;20.30;35.47;102800.34;2198902;39;115838;-61
2021/04/17 05:33:07;;;;;;;;;;;;;;;20.32;35.61;102792.50;2203316;39;115339;-60
2021/04/17 05:34:38;;;;;;;;;;;;;;;20.34;35.28;102795.91;2195524;39;114838;-59
2021/04/17 05:36:09;;;;;;;;;;;;;;;20.36;35.47;102794.53;2196651;39;114970;-61
2021/04/17 05:37:40;;;;;;;;;;;;;;;20.40;35.54;102797.66;2198855;39;114997;-59
2021/04/17 05:39:13;;;;;;;;;;;;;;;20.43;35.75;102794.34;2196395;39;115218;-61
2021/04/17 05:40:44;;;;;;;;;;;;;;;20.46;35.67;102792.94;2192757;39;114810;-61
2021/04/17 05:42:16;;;;;;;;;;;;;;;20.49;35.99;102793.25;2192790;39;115081;-57
2021/04/17 05:43:47;;;;;;;;;;;;;;;20.53;35.90;102794.47;2195242;39;114843;-59
2021/04/17 05:45:18;;;;;;;;;;;;;;;20.57;35.97;102794.78;2198168;39;115456;-63
2021/04/17 05:46:49;;;;;;;;;;;;;;;20.62;36.01;102797.63;2199918;39;115597;-60
2021/04/17 05:48:21;;;;;;;;;;;;;;;20.65;35.92;102788.69;2198968;39;116001;-61
2021/04/17 05:49:52;;;;;;;;;;;;;;;20.69;35.74;102796.31;2195977;39;115418;-63
2021/04/17 05:51:23;;;;;;;;;;;;;;;20.73;35.42;102793.81;2195214;39;115868;-62
2021/04/17 05:52:54;;;;;;;;;;;;;;;20.75;35.33;102795.25;2196749;39;115508;-60
2021/04/17 05:54:25;;;;;;;;;;;;;;;20.80;35.61;102797.28;2194418;39;115500;-62
2021/04/17 05:55:56;;;;;;;;;;;;;;;20.82;35.69;102795.03;2193592;39;115814;-61
2021/04/17 05:57:27;;;;;;;;;;;;;;;20.87;35.59;102797.88;2193339;39;115766;-61
2021/04/17 05:58:58;;;;;;;;;;;;;;;20.89;35.38;102797.63;2192598;39;114643;-62
2021/04/17 06:00:30;;;;;;;;;;;;;;;20.94;35.27;102794.88;2194234;39;115685;-60
2021/04/17 06:02:01;;;;;;;;;;;;;;;20.97;35.01;102799.97;2197837;39;115703;-65
2021/04/17 06:03:32;;;;;;;;;;;;;;;21.02;35.08;102800.00;2200332;39;115185;-60
2021/04/17 06:05:04;;;;;;;;;;;;;;;21.05;35.35;102796.66;2198995;39;115932;-58
2021/04/17 06:06:35;;;;;;;;;;;;;;;21.08;34.85;102796.97;2197163;39;113702;-59
2021/04/17 06:08:06;;;;;;;;;;;;;;;21.11;35.01;102793.63;2202495;39;113666;-60
2021/04/17 06:09:37;;;;;;;;;;;;;;;21.15;35.25;102800.44;2195074;39;114023;-61
2021/04/17 06:11:09;;;;;;;;;;;;;;;21.19;34.63;102797.94;2195368;39;114099;-61
2021/04/17 06:12:44;;;;;;;;;;;;;;;21.22;35.13;102800.22;2197964;39;113748;-58
2021/04/17 06:14:15;;;;;;;;;;;;;;;21.24;34.89;102801.66;2190052;39;113950;-61
2021/04/17 06:15:46;;;;;;;;;;;;;;;21.30;34.61;102794.13;2194309;39;113745;-57
2021/04/17 06:17:17;;;;;;;;;;;;;;;21.33;34.70;102802.00;2194237;39;113648;-60
2021/04/17 06:18:49;;;;;;;;;;;;;;;21.35;34.66;102796.94;2193411;39;113622;-59
2021/04/17 06:20:20;;;;;;;;;;;;;;;21.40;34.57;102796.13;2194849;39;113976;-61
2021/04/17 06:21:58;;;;;;;;;;;;;;;21.43;34.44;102799.28;2190587;39;113802;-59
2021/04/17 06:23:30;;;;;;;;;;;;;;;21.46;34.71;102792.25;2194306;39;114295;-58
2021/04/17 06:25:01;;;;;;;;;;;;;;;21.50;34.67;102794.25;2197812;39;114082;-61
2021/04/17 06:26:32;;;;;;;;;;;;;;;21.52;34.40;102797.66;2195512;39;113838;-61
2021/04/17 06:28:03;;;;;;;;;;;;;;;21.55;34.58;102797.09;2201353;39;113708;-63
2021/04/17 06:29:34;;;;;;;;;;;;;;;21.60;34.62;102793.47;2199260;39;114923;-61
2021/04/17 06:31:05;;;;;;;;;;;;;;;21.63;34.47;102798.56;2200443;39;114821;-61
2021/04/17 06:32:37;;;;;;;;;;;;;;;21.66;34.38;102798.03;2192786;39;114861;-61
2021/04/17 06:34:08;;;;;;;;;;;;;;;21.70;34.90;102804.81;2200258;39;115219;-62
2021/04/17 06:35:39;;;;;;;;;;;;;;;21.71;34.74;102800.88;2198117;39;115286;-59
2021/04/17 06:37:10;;;;;;;;;;;;;;;21.73;34.34;102799.47;2198642;39;115160;-58
2021/04/17 06:38:41;;;;;;;;;;;;;;;21.76;34.55;102797.25;2196409;39;114823;-58
2021/04/17 06:40:13;;;;;;;;;;;;;;;21.80;34.19;102795.59;2190960;39;114869;-58
2021/04/17 06:41:46;;;;;;;;;;;;;;;21.83;34.39;102803.47;2193087;39;115505;-61
2021/04/17 06:43:21;;;;;;;;;;;;;;;21.86;34.78;102798.16;2194786;39;114864;-59
2021/04/17 06:44:52;;;;;;;;;;;;;;;21.89;34.50;102796.78;2191636;39;114858;-60
2021/04/17 06:46:24;;;;;;;;;;;;;;;21.91;34.12;102801.00;2192950;39;115010;-58
2021/04/17 06:47:56;;;;;;;;;;;;;;;21.95;34.82;102801.31;2192748;39;115030;-59
2021/04/17 06:49:27;;;;;;;;;;;;;;;21.98;34.38;102803.59;2197315;39;116481;-58
2021/04/17 06:51:00;;;;;;;;;;;;;;;21.98;33.88;102790.38;2196512;39;115587;-56
2021/04/17 06:52:32;;;;;;;;;;;;;;;22.01;34.03;102791.78;2195822;39;115527;-59
2021/04/17 06:54:04;;;;;;;;;;;;;;;22.02;33.71;102791.53;2193421;39;115468;-61
2021/04/17 06:55:36;;;;;;;;;;;;;;;22.05;33.78;102795.75;2195399;39;115567;-60
2021/04/17 06:57:12;;;;;;;;;;;;;;;22.07;34.01;102799.16;2197149;39;115716;-60
2021/04/17 06:58:43;;;;;;;;;;;;;;;22.09;33.77;102799.72;2197959;39;115552;-59
2021/04/17 07:00:18;;;;;;;;;;;;;;;22.11;33.96;102792.69;2202886;39;116317;-60
2021/04/17 07:01:49;;;;;;;;;;;;;;;22.14;33.67;102796.91;2187905;39;114614;-58
2021/04/17 07:03:21;;;;;;;;;;;;;;;22.16;33.52;102794.69;2191623;39;116471;-60
2021/04/17 07:04:53;;;;;;;;;;;;;;;22.18;33.56;102792.44;2196326;39;115377;-59
2021/04/17 07:06:24;;;;;;;;;;;;;;;22.21;33.63;102793.88;2202399;39;115926;-59
2021/04/17 07:07:55;;;;;;;;;;;;;;;22.24;34.21;102793.31;2197828;39;116159;-59
2021/04/17 07:09:27;;;;;;;;;;;;;;;22.26;34.20;102794.72;2198322;39;115584;-58
2021/04/17 07:10:59;;;;;;;;;;;;;;;22.28;34.15;102794.44;2200850;39;115798;-60
2021/04/17 07:12:30;;;;;;;;;;;;;;;22.32;33.95;102787.97;2191556;39;114225;-58
2021/04/17 07:14:03;;;;;;;;;;;;;;;22.34;33.58;102799.00;2196828;39;114147;-61
2021/04/17 07:15:35;;;;;;;;;;;;;;;22.36;33.82;102791.94;2202213;39;114018;-59
2021/04/17 07:17:06;;;;;;;;;;;;;;;22.38;34.00;102795.34;2195338;39;113861;-62
2021/04/17 07:18:39;;;;;;;;;;;;;;;22.41;33.81;102796.75;2196715;39;113933;-62
2021/04/17 07:20:13;;;;;;;;;;;;;;;22.42;33.77;102790.84;2196682;39;113998;-62
2021/04/17 07:21:44;;;;;;;;;;;;;;;22.45;33.70;102795.06;2201099;39;113953;-60
2021/04/17 07:23:25;;;;;;;;;;;;;;;22.46;33.81;102779.88;2196039;39;113905;-63
2021/04/17 07:25:12;;;;;;;;;;;;;;;22.50;33.75;102789.44;2196338;39;113717;-61
2021/04/17 07:26:43;;;;;;;;;;;;;;;22.51;33.84;102789.19;2198087;39;113872;-59
2021/04/17 07:28:14;;;;;;;;;;;;;;;22.54;33.70;102793.41;2193117;39;113767;-60
2021/04/17 07:29:45;;;;;;;;;;;;;;;22.56;33.41;102791.16;2197930;39;113937;-61
2021/04/17 07:31:16;;;;;;;;;;;;;;;22.57;33.53;102788.09;2196716;39;114748;-63
2021/04/17 07:32:48;;;;;;;;;;;;;;;22.60;33.37;102793.16;2200493;39;113853;-61
2021/04/17 07:34:21;;;;;;;;;;;;;;;22.61;33.59;102789.22;2198416;39;114944;-60
2021/04/17 07:35:52;;;;;;;;;;;;;;;22.65;33.66;102791.47;2201153;39;115179;-61
2021/04/17 07:37:23;;;;;;;;;;;;;;;22.67;33.51;102792.06;2194187;39;115149;-62
2021/04/17 07:38:54;;;;;;;;;;;;;;;22.70;33.52;102792.38;2192440;39;114912;-59
2021/04/17 07:40:26;;;;;;;;;;;;;;;22.72;33.52;102792.06;2193508;39;114891;-60
2021/04/17 07:41:58;;;;;;;;;;;;;;;22.72;33.36;102790.09;2196646;39;115019;-58
2021/04/17 07:43:39;;;;;;;;;;;;;;;22.76;33.37;102791.22;2199112;39;115117;-59
2021/04/17 07:45:19;;;;;;;;;;;;;;;22.77;33.38;102797.72;2198951;39;115829;-61
2021/04/17 07:46:50;;;;;;;;;;;;;;;22.80;33.65;102783.09;2198781;39;114899;-60